sensor_id;sensor_type;location;lat;lon;timestamp;P1;durP1;ratioP1;P2;durP2;ratioP2
31906;SDS011;18455;50.858;13.662;2023-06-22T00:04:56;10.18;;;8.85;;
31906;SDS011;18455;50.858;13.662;2023-06-22T00:09:56;9.75;;;8.75;;
31906;SDS011;18455;50.858;13.662;2023-06-22T00:14:56;11.93;;;9.43;;
31906;SDS011;18455;50.858;13.662;2023-06-22T00:19:57;10.63;;;9.45;;
31906;SDS011;18455;50.858;13.662;2023-06-22T00:24:58;11.10;;;9.27;;
31906;SDS011;18455;50.858;13.662;2023-06-22T00:29:59;9.88;;;8.60;;
31906;SDS011;18455;50.858;13.662;2023-06-22T00:34:59;10.45;;;9.30;;
31906;SDS011;18455;50.858;13.662;2023-06-22T00:40:00;11.18;;;9.85;;
31906;SDS011;18455;50.858;13.662;2023-06-22T00:45:00;11.48;;;8.77;;
31906;SDS011;18455;50.858;13.662;2023-06-22T00:50:01;13.43;;;9.18;;
31906;SDS011;18455;50.858;13.662;2023-06-22T00:55:02;11.80;;;9.40;;
31906;SDS011;18455;50.858;13.662;2023-06-22T01:00:03;12.10;;;9.85;;
31906;SDS011;18455;50.858;13.662;2023-06-22T01:05:09;13.93;;;9.82;;
31906;SDS011;18455;50.858;13.662;2023-06-22T01:10:12;12.63;;;9.13;;
31906;SDS011;18455;50.858;13.662;2023-06-22T01:15:27;11.27;;;8.95;;
31906;SDS011;18455;50.858;13.662;2023-06-22T01:20:29;11.52;;;9.55;;
31906;SDS011;18455;50.858;13.662;2023-06-22T01:25:47;11.90;;;9.52;;
31906;SDS011;18455;50.858;13.662;2023-06-22T01:30:48;12.10;;;9.27;;
31906;SDS011;18455;50.858;13.662;2023-06-22T01:35:49;12.82;;;9.30;;
31906;SDS011;18455;50.858;13.662;2023-06-22T01:40:49;11.07;;;9.40;;
31906;SDS011;18455;50.858;13.662;2023-06-22T01:45:51;11.20;;;10.00;;
31906;SDS011;18455;50.858;13.662;2023-06-22T01:50:53;12.88;;;9.52;;
31906;SDS011;18455;50.858;13.662;2023-06-22T01:55:53;11.27;;;10.05;;
31906;SDS011;18455;50.858;13.662;2023-06-22T02:01:17;12.27;;;9.38;;
31906;SDS011;18455;50.858;13.662;2023-06-22T02:06:21;10.95;;;9.27;;
31906;SDS011;18455;50.858;13.662;2023-06-22T02:11:25;12.50;;;8.98;;
31906;SDS011;18455;50.858;13.662;2023-06-22T02:16:27;11.23;;;9.43;;
31906;SDS011;18455;50.858;13.662;2023-06-22T02:21:30;15.40;;;9.38;;
31906;SDS011;18455;50.858;13.662;2023-06-22T02:26:31;11.75;;;9.98;;
31906;SDS011;18455;50.858;13.662;2023-06-22T02:31:32;10.85;;;8.80;;
31906;SDS011;18455;50.858;13.662;2023-06-22T02:36:32;12.88;;;8.88;;
31906;SDS011;18455;50.858;13.662;2023-06-22T02:41:34;10.48;;;9.38;;
31906;SDS011;18455;50.858;13.662;2023-06-22T02:46:35;11.38;;;9.30;;
31906;SDS011;18455;50.858;13.662;2023-06-22T02:51:37;10.25;;;9.13;;
31906;SDS011;18455;50.858;13.662;2023-06-22T02:56:39;13.00;;;9.60;;
31906;SDS011;18455;50.858;13.662;2023-06-22T03:01:40;10.65;;;8.50;;
31906;SDS011;18455;50.858;13.662;2023-06-22T03:06:49;11.25;;;9.75;;
31906;SDS011;18455;50.858;13.662;2023-06-22T03:11:51;10.50;;;9.40;;
31906;SDS011;18455;50.858;13.662;2023-06-22T03:16:52;11.02;;;9.93;;
31906;SDS011;18455;50.858;13.662;2023-06-22T03:21:53;11.60;;;9.95;;
31906;SDS011;18455;50.858;13.662;2023-06-22T03:26:53;11.52;;;9.52;;
31906;SDS011;18455;50.858;13.662;2023-06-22T03:31:54;15.85;;;9.65;;
31906;SDS011;18455;50.858;13.662;2023-06-22T03:36:56;11.88;;;8.85;;
31906;SDS011;18455;50.858;13.662;2023-06-22T03:41:57;14.10;;;9.18;;
31906;SDS011;18455;50.858;13.662;2023-06-22T03:46:58;11.43;;;10.00;;
31906;SDS011;18455;50.858;13.662;2023-06-22T03:51:59;10.20;;;8.68;;
31906;SDS011;18455;50.858;13.662;2023-06-22T03:57:00;10.82;;;9.65;;
31906;SDS011;18455;50.858;13.662;2023-06-22T04:02:00;11.15;;;9.45;;
31906;SDS011;18455;50.858;13.662;2023-06-22T04:07:01;12.02;;;9.00;;
31906;SDS011;18455;50.858;13.662;2023-06-22T04:12:01;9.65;;;8.63;;
31906;SDS011;18455;50.858;13.662;2023-06-22T04:17:02;10.43;;;9.00;;
31906;SDS011;18455;50.858;13.662;2023-06-22T04:22:02;9.15;;;7.95;;
31906;SDS011;18455;50.858;13.662;2023-06-22T04:27:03;12.75;;;8.73;;
31906;SDS011;18455;50.858;13.662;2023-06-22T04:32:04;15.85;;;8.88;;
31906;SDS011;18455;50.858;13.662;2023-06-22T04:37:05;14.02;;;8.50;;
31906;SDS011;18455;50.858;13.662;2023-06-22T04:42:05;9.25;;;8.13;;
31906;SDS011;18455;50.858;13.662;2023-06-22T04:47:06;12.70;;;8.18;;
31906;SDS011;18455;50.858;13.662;2023-06-22T04:52:09;10.65;;;7.72;;
31906;SDS011;18455;50.858;13.662;2023-06-22T04:57:11;11.30;;;7.57;;
31906;SDS011;18455;50.858;13.662;2023-06-22T05:02:11;10.75;;;7.93;;
31906;SDS011;18455;50.858;13.662;2023-06-22T05:07:11;9.73;;;7.07;;
31906;SDS011;18455;50.858;13.662;2023-06-22T05:12:12;10.07;;;7.38;;
31906;SDS011;18455;50.858;13.662;2023-06-22T05:17:12;9.95;;;7.05;;
31906;SDS011;18455;50.858;13.662;2023-06-22T05:22:16;10.75;;;7.93;;
31906;SDS011;18455;50.858;13.662;2023-06-22T05:27:16;9.77;;;7.78;;
31906;SDS011;18455;50.858;13.662;2023-06-22T05:32:17;9.77;;;8.07;;
31906;SDS011;18455;50.858;13.662;2023-06-22T05:37:18;10.32;;;8.13;;
31906;SDS011;18455;50.858;13.662;2023-06-22T05:42:19;7.50;;;6.78;;
31906;SDS011;18455;50.858;13.662;2023-06-22T05:47:19;10.80;;;7.70;;
31906;SDS011;18455;50.858;13.662;2023-06-22T05:52:19;12.18;;;8.55;;
31906;SDS011;18455;50.858;13.662;2023-06-22T05:57:20;8.80;;;7.85;;
31906;SDS011;18455;50.858;13.662;2023-06-22T06:02:21;13.23;;;7.93;;
31906;SDS011;18455;50.858;13.662;2023-06-22T06:07:22;13.02;;;6.95;;
31906;SDS011;18455;50.858;13.662;2023-06-22T06:12:22;9.57;;;6.80;;
31906;SDS011;18455;50.858;13.662;2023-06-22T06:17:22;12.82;;;7.30;;
31906;SDS011;18455;50.858;13.662;2023-06-22T06:22:23;13.15;;;8.25;;
31906;SDS011;18455;50.858;13.662;2023-06-22T06:27:23;8.98;;;6.75;;
31906;SDS011;18455;50.858;13.662;2023-06-22T06:32:29;7.70;;;6.43;;
31906;SDS011;18455;50.858;13.662;2023-06-22T06:37:29;10.07;;;6.03;;
31906;SDS011;18455;50.858;13.662;2023-06-22T06:42:29;6.40;;;5.73;;
31906;SDS011;18455;50.858;13.662;2023-06-22T06:47:30;8.53;;;6.20;;
31906;SDS011;18455;50.858;13.662;2023-06-22T06:52:30;6.60;;;5.90;;
31906;SDS011;18455;50.858;13.662;2023-06-22T06:57:30;7.15;;;5.60;;
31906;SDS011;18455;50.858;13.662;2023-06-22T07:02:33;6.45;;;5.68;;
31906;SDS011;18455;50.858;13.662;2023-06-22T07:07:33;6.30;;;5.67;;
31906;SDS011;18455;50.858;13.662;2023-06-22T07:12:34;6.60;;;6.00;;
31906;SDS011;18455;50.858;13.662;2023-06-22T07:17:35;9.43;;;6.18;;
31906;SDS011;18455;50.858;13.662;2023-06-22T07:22:36;8.35;;;6.38;;
31906;SDS011;18455;50.858;13.662;2023-06-22T07:27:37;7.45;;;6.60;;
31906;SDS011;18455;50.858;13.662;2023-06-22T07:32:38;7.25;;;5.97;;
31906;SDS011;18455;50.858;13.662;2023-06-22T07:37:38;8.00;;;6.20;;
31906;SDS011;18455;50.858;13.662;2023-06-22T07:42:39;6.88;;;6.18;;
31906;SDS011;18455;50.858;13.662;2023-06-22T07:47:39;9.60;;;6.20;;
31906;SDS011;18455;50.858;13.662;2023-06-22T07:52:40;9.93;;;6.17;;
31906;SDS011;18455;50.858;13.662;2023-06-22T07:57:40;9.23;;;7.50;;
31906;SDS011;18455;50.858;13.662;2023-06-22T08:02:42;8.75;;;6.60;;
31906;SDS011;18455;50.858;13.662;2023-06-22T08:07:44;8.25;;;7.18;;
31906;SDS011;18455;50.858;13.662;2023-06-22T08:12:44;8.73;;;6.78;;
31906;SDS011;18455;50.858;13.662;2023-06-22T08:17:45;8.83;;;6.67;;
31906;SDS011;18455;50.858;13.662;2023-06-22T08:22:48;9.43;;;6.43;;
31906;SDS011;18455;50.858;13.662;2023-06-22T08:27:48;9.93;;;7.50;;
31906;SDS011;18455;50.858;13.662;2023-06-22T08:32:49;7.90;;;6.72;;
31906;SDS011;18455;50.858;13.662;2023-06-22T08:37:49;11.43;;;6.93;;
31906;SDS011;18455;50.858;13.662;2023-06-22T08:42:55;9.38;;;7.00;;
31906;SDS011;18455;50.858;13.662;2023-06-22T08:47:55;7.55;;;6.82;;
31906;SDS011;18455;50.858;13.662;2023-06-22T08:52:56;8.02;;;6.90;;
31906;SDS011;18455;50.858;13.662;2023-06-22T08:57:56;10.10;;;6.57;;
31906;SDS011;18455;50.858;13.662;2023-06-22T09:02:57;11.50;;;7.22;;
31906;SDS011;18455;50.858;13.662;2023-06-22T09:07:58;8.00;;;7.18;;
31906;SDS011;18455;50.858;13.662;2023-06-22T09:12:59;9.47;;;7.37;;
31906;SDS011;18455;50.858;13.662;2023-06-22T09:17:59;7.83;;;7.03;;
31906;SDS011;18455;50.858;13.662;2023-06-22T09:22:59;8.00;;;7.20;;
31906;SDS011;18455;50.858;13.662;2023-06-22T09:28:00;8.17;;;7.37;;
31906;SDS011;18455;50.858;13.662;2023-06-22T09:33:00;8.60;;;7.70;;
31906;SDS011;18455;50.858;13.662;2023-06-22T09:38:01;8.57;;;7.50;;
31906;SDS011;18455;50.858;13.662;2023-06-22T09:43:01;11.43;;;8.20;;
31906;SDS011;18455;50.858;13.662;2023-06-22T09:48:01;9.53;;;7.70;;
31906;SDS011;18455;50.858;13.662;2023-06-22T09:53:02;8.18;;;7.32;;
31906;SDS011;18455;50.858;13.662;2023-06-22T09:58:02;10.17;;;8.10;;
31906;SDS011;18455;50.858;13.662;2023-06-22T10:03:02;8.43;;;7.40;;
31906;SDS011;18455;50.858;13.662;2023-06-22T10:08:03;9.37;;;7.47;;
31906;SDS011;18455;50.858;13.662;2023-06-22T10:13:10;8.23;;;7.53;;
31906;SDS011;18455;50.858;13.662;2023-06-22T10:18:11;9.00;;;7.32;;
31906;SDS011;18455;50.858;13.662;2023-06-22T10:23:11;7.33;;;6.73;;
31906;SDS011;18455;50.858;13.662;2023-06-22T10:28:11;12.97;;;7.70;;
31906;SDS011;18455;50.858;13.662;2023-06-22T10:33:12;8.43;;;7.45;;
31906;SDS011;18455;50.858;13.662;2023-06-22T10:38:12;9.67;;;7.23;;
31906;SDS011;18455;50.858;13.662;2023-06-22T10:43:13;8.23;;;7.30;;
31906;SDS011;18455;50.858;13.662;2023-06-22T10:48:13;7.70;;;7.00;;
31906;SDS011;18455;50.858;13.662;2023-06-22T10:53:13;10.63;;;7.17;;
31906;SDS011;18455;50.858;13.662;2023-06-22T10:58:14;12.07;;;6.93;;
31906;SDS011;18455;50.858;13.662;2023-06-22T11:03:14;8.30;;;7.43;;
31906;SDS011;18455;50.858;13.662;2023-06-22T11:08:15;8.57;;;7.10;;
31906;SDS011;18455;50.858;13.662;2023-06-22T11:13:15;9.32;;;7.22;;
31906;SDS011;18455;50.858;13.662;2023-06-22T11:18:15;13.00;;;8.37;;
31906;SDS011;18455;50.858;13.662;2023-06-22T11:23:16;8.52;;;7.38;;
31906;SDS011;18455;50.858;13.662;2023-06-22T11:28:17;9.65;;;6.75;;
31906;SDS011;18455;50.858;13.662;2023-06-22T11:33:17;8.30;;;7.20;;
31906;SDS011;18455;50.858;13.662;2023-06-22T11:38:18;7.43;;;6.63;;
31906;SDS011;18455;50.858;13.662;2023-06-22T11:43:18;7.20;;;6.50;;
31906;SDS011;18455;50.858;13.662;2023-06-22T11:48:18;10.30;;;7.23;;
31906;SDS011;18455;50.858;13.662;2023-06-22T11:53:20;10.63;;;7.30;;
31906;SDS011;18455;50.858;13.662;2023-06-22T11:58:21;7.13;;;6.43;;
31906;SDS011;18455;50.858;13.662;2023-06-22T12:03:22;10.23;;;6.60;;
31906;SDS011;18455;50.858;13.662;2023-06-22T12:08:22;9.83;;;6.40;;
31906;SDS011;18455;50.858;13.662;2023-06-22T12:13:23;7.97;;;6.30;;
31906;SDS011;18455;50.858;13.662;2023-06-22T12:18:23;9.83;;;7.07;;
31906;SDS011;18455;50.858;13.662;2023-06-22T12:23:24;11.07;;;6.75;;
31906;SDS011;18455;50.858;13.662;2023-06-22T12:28:24;8.43;;;6.70;;
31906;SDS011;18455;50.858;13.662;2023-06-22T12:33:25;10.23;;;6.97;;
31906;SDS011;18455;50.858;13.662;2023-06-22T12:38:25;8.87;;;6.40;;
31906;SDS011;18455;50.858;13.662;2023-06-22T12:43:25;8.60;;;6.28;;
31906;SDS011;18455;50.858;13.662;2023-06-22T12:48:26;6.77;;;5.67;;
31906;SDS011;18455;50.858;13.662;2023-06-22T12:53:27;8.70;;;6.47;;
31906;SDS011;18455;50.858;13.662;2023-06-22T12:58:28;9.55;;;6.00;;
31906;SDS011;18455;50.858;13.662;2023-06-22T13:03:28;7.87;;;6.40;;
31906;SDS011;18455;50.858;13.662;2023-06-22T13:08:29;9.20;;;5.90;;
31906;SDS011;18455;50.858;13.662;2023-06-22T13:13:29;7.95;;;6.18;;
31906;SDS011;18455;50.858;13.662;2023-06-22T13:18:29;7.45;;;6.57;;
31906;SDS011;18455;50.858;13.662;2023-06-22T13:23:30;7.03;;;6.07;;
31906;SDS011;18455;50.858;13.662;2023-06-22T13:28:30;9.60;;;5.88;;
31906;SDS011;18455;50.858;13.662;2023-06-22T13:33:31;9.27;;;6.77;;
31906;SDS011;18455;50.858;13.662;2023-06-22T13:38:31;6.60;;;5.10;;
31906;SDS011;18455;50.858;13.662;2023-06-22T13:43:32;7.80;;;5.45;;
31906;SDS011;18455;50.858;13.662;2023-06-22T13:48:32;10.38;;;5.90;;
31906;SDS011;18455;50.858;13.662;2023-06-22T13:53:33;7.20;;;6.20;;
31906;SDS011;18455;50.858;13.662;2023-06-22T13:58:33;9.47;;;6.00;;
31906;SDS011;18455;50.858;13.662;2023-06-22T14:03:33;7.03;;;6.33;;
31906;SDS011;18455;50.858;13.662;2023-06-22T14:08:34;9.20;;;6.13;;
31906;SDS011;18455;50.858;13.662;2023-06-22T14:13:34;9.90;;;5.57;;
31906;SDS011;18455;50.858;13.662;2023-06-22T14:18:35;7.90;;;5.95;;
31906;SDS011;18455;50.858;13.662;2023-06-22T14:23:36;12.47;;;5.67;;
31906;SDS011;18455;50.858;13.662;2023-06-22T14:28:37;9.95;;;5.22;;
31906;SDS011;18455;50.858;13.662;2023-06-22T14:33:38;8.07;;;5.97;;
31906;SDS011;18455;50.858;13.662;2023-06-22T14:38:38;7.17;;;5.33;;
31906;SDS011;18455;50.858;13.662;2023-06-22T14:43:42;6.63;;;5.93;;
31906;SDS011;18455;50.858;13.662;2023-06-22T14:48:43;6.97;;;5.32;;
31906;SDS011;18455;50.858;13.662;2023-06-22T14:53:44;7.03;;;5.83;;
31906;SDS011;18455;50.858;13.662;2023-06-22T14:58:45;10.38;;;6.97;;
31906;SDS011;18455;50.858;13.662;2023-06-22T15:03:45;10.15;;;6.00;;
31906;SDS011;18455;50.858;13.662;2023-06-22T15:08:46;7.07;;;5.90;;
31906;SDS011;18455;50.858;13.662;2023-06-22T15:13:46;11.13;;;5.85;;
31906;SDS011;18455;50.858;13.662;2023-06-22T15:18:46;7.17;;;6.03;;
31906;SDS011;18455;50.858;13.662;2023-06-22T15:23:48;8.98;;;5.75;;
31906;SDS011;18455;50.858;13.662;2023-06-22T15:28:48;6.53;;;5.50;;
31906;SDS011;18455;50.858;13.662;2023-06-22T15:33:49;9.53;;;6.47;;
31906;SDS011;18455;50.858;13.662;2023-06-22T15:38:49;8.50;;;6.63;;
31906;SDS011;18455;50.858;13.662;2023-06-22T15:43:49;7.40;;;6.20;;
31906;SDS011;18455;50.858;13.662;2023-06-22T15:48:50;8.87;;;7.37;;
31906;SDS011;18455;50.858;13.662;2023-06-22T15:53:50;7.57;;;6.50;;
31906;SDS011;18455;50.858;13.662;2023-06-22T15:58:50;8.47;;;6.40;;
31906;SDS011;18455;50.858;13.662;2023-06-22T16:03:51;9.48;;;6.28;;
31906;SDS011;18455;50.858;13.662;2023-06-22T16:08:51;9.60;;;6.57;;
31906;SDS011;18455;50.858;13.662;2023-06-22T16:13:51;12.10;;;7.07;;
31906;SDS011;18455;50.858;13.662;2023-06-22T16:18:52;10.03;;;6.63;;
31906;SDS011;18455;50.858;13.662;2023-06-22T16:23:52;10.02;;;6.53;;
31906;SDS011;18455;50.858;13.662;2023-06-22T16:28:53;8.07;;;7.27;;
31906;SDS011;18455;50.858;13.662;2023-06-22T16:33:53;7.03;;;6.27;;
31906;SDS011;18455;50.858;13.662;2023-06-22T16:38:53;7.73;;;6.80;;
31906;SDS011;18455;50.858;13.662;2023-06-22T16:43:54;11.93;;;7.10;;
31906;SDS011;18455;50.858;13.662;2023-06-22T16:48:54;10.90;;;7.30;;
31906;SDS011;18455;50.858;13.662;2023-06-22T16:53:54;10.63;;;6.90;;
31906;SDS011;18455;50.858;13.662;2023-06-22T16:58:58;11.13;;;6.80;;
31906;SDS011;18455;50.858;13.662;2023-06-22T17:04:08;7.20;;;6.53;;
31906;SDS011;18455;50.858;13.662;2023-06-22T17:09:13;8.38;;;6.97;;
31906;SDS011;18455;50.858;13.662;2023-06-22T17:14:14;11.43;;;7.05;;
31906;SDS011;18455;50.858;13.662;2023-06-22T17:19:15;7.85;;;6.68;;
31906;SDS011;18455;50.858;13.662;2023-06-22T17:24:16;14.80;;;7.55;;
31906;SDS011;18455;50.858;13.662;2023-06-22T17:29:19;9.32;;;7.03;;
31906;SDS011;18455;50.858;13.662;2023-06-22T17:34:20;9.10;;;7.32;;
31906;SDS011;18455;50.858;13.662;2023-06-22T17:39:21;8.15;;;7.00;;
31906;SDS011;18455;50.858;13.662;2023-06-22T17:49:30;10.02;;;7.05;;
31906;SDS011;18455;50.858;13.662;2023-06-22T17:54:33;8.02;;;6.70;;
31906;SDS011;18455;50.858;13.662;2023-06-22T17:59:34;9.63;;;7.10;;
31906;SDS011;18455;50.858;13.662;2023-06-22T18:04:34;11.50;;;7.20;;
31906;SDS011;18455;50.858;13.662;2023-06-22T18:09:35;9.52;;;7.72;;
31906;SDS011;18455;50.858;13.662;2023-06-22T18:14:35;12.70;;;9.02;;
31906;SDS011;18455;50.858;13.662;2023-06-22T18:19:37;9.40;;;7.07;;
31906;SDS011;18455;50.858;13.662;2023-06-22T18:24:39;11.18;;;7.82;;
31906;SDS011;18455;50.858;13.662;2023-06-22T18:29:40;9.55;;;8.18;;
31906;SDS011;18455;50.858;13.662;2023-06-22T18:34:41;11.68;;;7.78;;
31906;SDS011;18455;50.858;13.662;2023-06-22T18:39:43;9.60;;;7.35;;
31906;SDS011;18455;50.858;13.662;2023-06-22T18:44:44;11.13;;;7.78;;
31906;SDS011;18455;50.858;13.662;2023-06-22T18:49:51;10.43;;;7.78;;
31906;SDS011;18455;50.858;13.662;2023-06-22T18:54:52;12.73;;;7.70;;
31906;SDS011;18455;50.858;13.662;2023-06-22T19:15:42;12.02;;;7.95;;
31906;SDS011;18455;50.858;13.662;2023-06-22T19:20:47;9.95;;;8.25;;
31906;SDS011;18455;50.858;13.662;2023-06-22T19:25:48;10.15;;;8.43;;
31906;SDS011;18455;50.858;13.662;2023-06-22T19:30:48;10.90;;;9.30;;
31906;SDS011;18455;50.858;13.662;2023-06-22T19:35:49;10.43;;;9.07;;
31906;SDS011;18455;50.858;13.662;2023-06-22T19:40:50;13.57;;;9.43;;
31906;SDS011;18455;50.858;13.662;2023-06-22T19:45:50;10.35;;;9.27;;
31906;SDS011;18455;50.858;13.662;2023-06-22T19:50:50;11.98;;;9.00;;
31906;SDS011;18455;50.858;13.662;2023-06-22T19:55:51;11.05;;;9.32;;
31906;SDS011;18455;50.858;13.662;2023-06-22T20:00:54;13.98;;;9.07;;
31906;SDS011;18455;50.858;13.662;2023-06-22T20:05:54;10.15;;;9.07;;
31906;SDS011;18455;50.858;13.662;2023-06-22T20:10:55;14.32;;;9.35;;
31906;SDS011;18455;50.858;13.662;2023-06-22T20:15:58;10.63;;;9.23;;
31906;SDS011;18455;50.858;13.662;2023-06-22T20:21:11;16.40;;;8.65;;
31906;SDS011;18455;50.858;13.662;2023-06-22T20:26:12;13.15;;;9.38;;
31906;SDS011;18455;50.858;13.662;2023-06-22T20:31:16;13.07;;;9.73;;
31906;SDS011;18455;50.858;13.662;2023-06-22T20:36:17;10.60;;;9.50;;
31906;SDS011;18455;50.858;13.662;2023-06-22T20:41:18;14.57;;;9.75;;
31906;SDS011;18455;50.858;13.662;2023-06-22T20:46:18;18.63;;;9.95;;
31906;SDS011;18455;50.858;13.662;2023-06-22T20:51:18;14.05;;;9.52;;
31906;SDS011;18455;50.858;13.662;2023-06-22T20:56:19;17.33;;;10.30;;
31906;SDS011;18455;50.858;13.662;2023-06-22T21:01:19;13.50;;;9.75;;
31906;SDS011;18455;50.858;13.662;2023-06-22T21:06:19;14.35;;;10.52;;
31906;SDS011;18455;50.858;13.662;2023-06-22T21:11:20;13.82;;;8.93;;
31906;SDS011;18455;50.858;13.662;2023-06-22T21:16:20;14.25;;;9.85;;
31906;SDS011;18455;50.858;13.662;2023-06-22T21:21:20;13.20;;;9.38;;
31906;SDS011;18455;50.858;13.662;2023-06-22T21:26:21;17.85;;;9.45;;
31906;SDS011;18455;50.858;13.662;2023-06-22T21:31:21;16.00;;;9.50;;
31906;SDS011;18455;50.858;13.662;2023-06-22T21:36:22;16.33;;;11.25;;
31906;SDS011;18455;50.858;13.662;2023-06-22T21:41:22;19.10;;;11.35;;
31906;SDS011;18455;50.858;13.662;2023-06-22T21:46:22;20.35;;;12.57;;
31906;SDS011;18455;50.858;13.662;2023-06-22T21:51:23;14.40;;;10.52;;
31906;SDS011;18455;50.858;13.662;2023-06-22T21:56:23;16.67;;;11.45;;
31906;SDS011;18455;50.858;13.662;2023-06-22T22:01:24;21.30;;;10.93;;
31906;SDS011;18455;50.858;13.662;2023-06-22T22:06:24;18.42;;;11.00;;
31906;SDS011;18455;50.858;13.662;2023-06-22T22:11:26;14.35;;;10.65;;
31906;SDS011;18455;50.858;13.662;2023-06-22T22:16:27;16.27;;;11.15;;
31906;SDS011;18455;50.858;13.662;2023-06-22T22:21:27;15.65;;;12.07;;
31906;SDS011;18455;50.858;13.662;2023-06-22T22:26:27;14.38;;;11.60;;
31906;SDS011;18455;50.858;13.662;2023-06-22T22:31:28;20.70;;;12.07;;
31906;SDS011;18455;50.858;13.662;2023-06-22T22:36:28;15.50;;;12.85;;
31906;SDS011;18455;50.858;13.662;2023-06-22T22:41:28;20.25;;;14.02;;
31906;SDS011;18455;50.858;13.662;2023-06-22T22:46:29;17.30;;;11.63;;
31906;SDS011;18455;50.858;13.662;2023-06-22T22:51:29;7.45;;;5.43;;
31906;SDS011;18455;50.858;13.662;2023-06-22T22:56:29;18.05;;;4.47;;
31906;SDS011;18455;50.858;13.662;2023-06-22T23:01:30;9.60;;;3.40;;
31906;SDS011;18455;50.858;13.662;2023-06-22T23:06:30;10.25;;;3.88;;
31906;SDS011;18455;50.858;13.662;2023-06-22T23:11:31;9.98;;;3.13;;
31906;SDS011;18455;50.858;13.662;2023-06-22T23:16:31;13.60;;;4.35;;
31906;SDS011;18455;50.858;13.662;2023-06-22T23:21:32;13.85;;;4.07;;
31906;SDS011;18455;50.858;13.662;2023-06-22T23:26:32;10.48;;;3.08;;
31906;SDS011;18455;50.858;13.662;2023-06-22T23:31:33;8.52;;;3.05;;
31906;SDS011;18455;50.858;13.662;2023-06-22T23:36:34;9.65;;;3.38;;
31906;SDS011;18455;50.858;13.662;2023-06-22T23:41:35;7.75;;;3.30;;
31906;SDS011;18455;50.858;13.662;2023-06-22T23:46:35;9.43;;;3.25;;
31906;SDS011;18455;50.858;13.662;2023-06-22T23:51:35;13.40;;;2.92;;
31906;SDS011;18455;50.858;13.662;2023-06-22T23:56:36;6.15;;;3.40;;
